sensor_id;sensor_type;location;lat;lon;timestamp;temperature;humidity
54898;DHT22;40800;52.704;6.398;2023-06-01T00:01:32;12.20;38.40
54898;DHT22;40800;52.704;6.398;2023-06-01T00:04:01;12.20;66.40
54898;DHT22;40800;52.704;6.398;2023-06-01T00:06:27;12.20;94.30
54898;DHT22;40800;52.704;6.398;2023-06-01T00:08:54;12.10;75.20
54898;DHT22;40800;52.704;6.398;2023-06-01T00:11:20;12.10;54.20
54898;DHT22;40800;52.704;6.398;2023-06-01T00:13:47;12.10;74.90
54898;DHT22;40800;52.704;6.398;2023-06-01T00:16:14;12.10;48.40
54898;DHT22;40800;52.704;6.398;2023-06-01T00:18:39;12.10;67.50
54898;DHT22;40800;52.704;6.398;2023-06-01T00:21:05;12.10;52.00
54898;DHT22;40800;52.704;6.398;2023-06-01T00:23:31;12.00;29.60
54898;DHT22;40800;52.704;6.398;2023-06-01T00:25:57;12.00;36.20
54898;DHT22;40800;52.704;6.398;2023-06-01T00:28:23;12.00;99.90
54898;DHT22;40800;52.704;6.398;2023-06-01T00:30:48;11.90;99.90
54898;DHT22;40800;52.704;6.398;2023-06-01T00:33:14;11.90;99.90
54898;DHT22;40800;52.704;6.398;2023-06-01T00:35:40;12.00;99.90
54898;DHT22;40800;52.704;6.398;2023-06-01T00:38:06;11.90;99.90
54898;DHT22;40800;52.704;6.398;2023-06-01T00:40:33;12.00;99.90
54898;DHT22;40800;52.704;6.398;2023-06-01T00:42:58;12.00;99.90
54898;DHT22;40800;52.704;6.398;2023-06-01T00:45:24;12.10;99.90
54898;DHT22;40800;52.704;6.398;2023-06-01T00:47:50;12.00;99.90
54898;DHT22;40800;52.704;6.398;2023-06-01T00:50:16;11.90;99.90
54898;DHT22;40800;52.704;6.398;2023-06-01T00:52:42;11.90;99.90
54898;DHT22;40800;52.704;6.398;2023-06-01T00:55:09;11.90;99.90
54898;DHT22;40800;52.704;6.398;2023-06-01T00:57:35;12.00;99.90
54898;DHT22;40800;52.704;6.398;2023-06-01T01:00:04;12.00;99.90
54898;DHT22;40800;52.704;6.398;2023-06-01T01:02:36;12.00;99.90
54898;DHT22;40800;52.704;6.398;2023-06-01T01:05:08;12.00;99.90
54898;DHT22;40800;52.704;6.398;2023-06-01T01:07:57;12.00;99.90
54898;DHT22;40800;52.704;6.398;2023-06-01T01:10:53;12.00;99.90
54898;DHT22;40800;52.704;6.398;2023-06-01T01:13:31;11.90;99.90
54898;DHT22;40800;52.704;6.398;2023-06-01T01:18:48;12.00;99.90
54898;DHT22;40800;52.704;6.398;2023-06-01T01:21:20;11.90;99.90
54898;DHT22;40800;52.704;6.398;2023-06-01T01:24:35;12.00;99.90
54898;DHT22;40800;52.704;6.398;2023-06-01T01:27:23;12.00;99.90
54898;DHT22;40800;52.704;6.398;2023-06-01T01:29:55;12.00;99.90
54898;DHT22;40800;52.704;6.398;2023-06-01T01:32:23;11.90;99.90
54898;DHT22;40800;52.704;6.398;2023-06-01T01:34:51;12.00;99.90
54898;DHT22;40800;52.704;6.398;2023-06-01T01:37:17;11.90;99.90
54898;DHT22;40800;52.704;6.398;2023-06-01T01:39:43;11.90;99.90
54898;DHT22;40800;52.704;6.398;2023-06-01T01:42:08;11.90;99.90
54898;DHT22;40800;52.704;6.398;2023-06-01T01:44:34;11.90;99.90
54898;DHT22;40800;52.704;6.398;2023-06-01T01:47:20;11.90;99.90
54898;DHT22;40800;52.704;6.398;2023-06-01T01:49:55;11.80;99.90
54898;DHT22;40800;52.704;6.398;2023-06-01T01:52:42;11.80;99.90
54898;DHT22;40800;52.704;6.398;2023-06-01T01:55:09;11.80;99.90
54898;DHT22;40800;52.704;6.398;2023-06-01T01:57:36;11.70;99.90
54898;DHT22;40800;52.704;6.398;2023-06-01T02:00:04;11.90;99.90
54898;DHT22;40800;52.704;6.398;2023-06-01T02:02:31;11.80;95.80
54898;DHT22;40800;52.704;6.398;2023-06-01T02:04:57;11.80;99.90
54898;DHT22;40800;52.704;6.398;2023-06-01T02:07:22;11.80;99.90
54898;DHT22;40800;52.704;6.398;2023-06-01T02:09:48;11.80;99.90
54898;DHT22;40800;52.704;6.398;2023-06-01T02:12:14;11.90;99.90
54898;DHT22;40800;52.704;6.398;2023-06-01T02:14:39;11.70;99.90
54898;DHT22;40800;52.704;6.398;2023-06-01T02:17:05;11.80;99.90
54898;DHT22;40800;52.704;6.398;2023-06-01T02:19:31;11.70;99.90
54898;DHT22;40800;52.704;6.398;2023-06-01T02:21:57;11.70;99.90
54898;DHT22;40800;52.704;6.398;2023-06-01T02:24:22;11.70;99.90
54898;DHT22;40800;52.704;6.398;2023-06-01T02:26:48;11.70;99.90
54898;DHT22;40800;52.704;6.398;2023-06-01T02:29:18;11.70;99.90
54898;DHT22;40800;52.704;6.398;2023-06-01T02:31:45;11.80;99.90
54898;DHT22;40800;52.704;6.398;2023-06-01T02:34:11;11.80;99.90
54898;DHT22;40800;52.704;6.398;2023-06-01T02:36:36;11.70;99.90
54898;DHT22;40800;52.704;6.398;2023-06-01T02:39:02;11.70;99.90
54898;DHT22;40800;52.704;6.398;2023-06-01T02:41:27;11.70;99.90
54898;DHT22;40800;52.704;6.398;2023-06-01T02:43:53;11.60;99.90
54898;DHT22;40800;52.704;6.398;2023-06-01T02:46:19;11.70;99.90
54898;DHT22;40800;52.704;6.398;2023-06-01T02:48:45;11.70;99.90
54898;DHT22;40800;52.704;6.398;2023-06-01T02:51:11;11.70;99.90
54898;DHT22;40800;52.704;6.398;2023-06-01T02:53:39;11.60;99.90
54898;DHT22;40800;52.704;6.398;2023-06-01T02:56:05;11.60;99.90
54898;DHT22;40800;52.704;6.398;2023-06-01T02:58:31;11.60;99.90
54898;DHT22;40800;52.704;6.398;2023-06-01T03:00:56;11.60;99.90
54898;DHT22;40800;52.704;6.398;2023-06-01T03:03:26;11.60;99.90
54898;DHT22;40800;52.704;6.398;2023-06-01T03:05:52;11.60;99.90
54898;DHT22;40800;52.704;6.398;2023-06-01T03:08:18;11.50;99.90
54898;DHT22;40800;52.704;6.398;2023-06-01T03:10:44;11.50;99.90
54898;DHT22;40800;52.704;6.398;2023-06-01T03:13:10;11.60;99.90
54898;DHT22;40800;52.704;6.398;2023-06-01T03:15:36;11.60;99.90
54898;DHT22;40800;52.704;6.398;2023-06-01T03:18:05;11.60;99.90
54898;DHT22;40800;52.704;6.398;2023-06-01T03:20:34;11.70;99.90
54898;DHT22;40800;52.704;6.398;2023-06-01T03:23:00;11.70;99.90
54898;DHT22;40800;52.704;6.398;2023-06-01T03:25:26;11.70;99.90
54898;DHT22;40800;52.704;6.398;2023-06-01T03:27:51;11.70;99.90
54898;DHT22;40800;52.704;6.398;2023-06-01T03:30:17;11.70;99.90
54898;DHT22;40800;52.704;6.398;2023-06-01T03:32:44;11.70;99.90
54898;DHT22;40800;52.704;6.398;2023-06-01T03:35:11;11.70;99.90
54898;DHT22;40800;52.704;6.398;2023-06-01T03:37:39;11.60;96.30
54898;DHT22;40800;52.704;6.398;2023-06-01T03:40:05;11.50;91.40
54898;DHT22;40800;52.704;6.398;2023-06-01T03:42:41;11.50;99.90
54898;DHT22;40800;52.704;6.398;2023-06-01T03:45:08;11.60;99.90
54898;DHT22;40800;52.704;6.398;2023-06-01T03:47:34;11.60;99.90
54898;DHT22;40800;52.704;6.398;2023-06-01T03:50:01;11.60;85.20
54898;DHT22;40800;52.704;6.398;2023-06-01T03:52:27;11.60;83.00
54898;DHT22;40800;52.704;6.398;2023-06-01T03:54:54;11.60;93.70
54898;DHT22;40800;52.704;6.398;2023-06-01T03:57:20;11.60;86.40
54898;DHT22;40800;52.704;6.398;2023-06-01T03:59:46;11.60;86.10
54898;DHT22;40800;52.704;6.398;2023-06-01T04:02:11;11.70;45.70
54898;DHT22;40800;52.704;6.398;2023-06-01T04:04:37;11.70;37.40
54898;DHT22;40800;52.704;6.398;2023-06-01T04:07:03;11.60;47.00
54898;DHT22;40800;52.704;6.398;2023-06-01T04:09:32;11.70;66.80
54898;DHT22;40800;52.704;6.398;2023-06-01T04:11:57;11.70;46.50
54898;DHT22;40800;52.704;6.398;2023-06-01T04:14:23;11.70;60.80
54898;DHT22;40800;52.704;6.398;2023-06-01T04:16:48;11.60;74.80
54898;DHT22;40800;52.704;6.398;2023-06-01T04:19:14;11.60;85.80
54898;DHT22;40800;52.704;6.398;2023-06-01T04:21:40;11.60;99.90
54898;DHT22;40800;52.704;6.398;2023-06-01T04:24:05;11.60;99.90
54898;DHT22;40800;52.704;6.398;2023-06-01T04:26:31;11.60;99.90
54898;DHT22;40800;52.704;6.398;2023-06-01T04:28:58;11.70;99.90
54898;DHT22;40800;52.704;6.398;2023-06-01T04:31:24;11.80;99.90
54898;DHT22;40800;52.704;6.398;2023-06-01T04:33:49;11.80;99.90
54898;DHT22;40800;52.704;6.398;2023-06-01T04:36:21;11.90;99.90
54898;DHT22;40800;52.704;6.398;2023-06-01T04:38:48;11.80;99.90
54898;DHT22;40800;52.704;6.398;2023-06-01T04:41:19;11.90;99.90
54898;DHT22;40800;52.704;6.398;2023-06-01T04:43:47;11.90;99.90
54898;DHT22;40800;52.704;6.398;2023-06-01T04:46:21;11.90;99.90
54898;DHT22;40800;52.704;6.398;2023-06-01T04:48:49;11.90;99.90
54898;DHT22;40800;52.704;6.398;2023-06-01T04:51:17;11.90;99.90
54898;DHT22;40800;52.704;6.398;2023-06-01T04:53:47;11.90;99.90
54898;DHT22;40800;52.704;6.398;2023-06-01T04:56:26;11.90;99.90
54898;DHT22;40800;52.704;6.398;2023-06-01T04:58:53;12.00;99.90
54898;DHT22;40800;52.704;6.398;2023-06-01T05:01:20;11.90;99.90
54898;DHT22;40800;52.704;6.398;2023-06-01T05:03:50;11.90;99.90
54898;DHT22;40800;52.704;6.398;2023-06-01T05:06:18;12.00;99.90
54898;DHT22;40800;52.704;6.398;2023-06-01T05:08:44;12.10;99.90
54898;DHT22;40800;52.704;6.398;2023-06-01T05:11:10;12.10;99.90
54898;DHT22;40800;52.704;6.398;2023-06-01T05:13:39;12.10;99.90
54898;DHT22;40800;52.704;6.398;2023-06-01T05:16:06;12.20;99.90
54898;DHT22;40800;52.704;6.398;2023-06-01T05:18:33;12.30;99.90
54898;DHT22;40800;52.704;6.398;2023-06-01T05:20:59;12.20;99.90
54898;DHT22;40800;52.704;6.398;2023-06-01T05:23:26;12.30;99.90
54898;DHT22;40800;52.704;6.398;2023-06-01T05:25:53;12.30;99.90
54898;DHT22;40800;52.704;6.398;2023-06-01T05:28:20;12.30;92.80
54898;DHT22;40800;52.704;6.398;2023-06-01T05:30:46;12.30;90.80
54898;DHT22;40800;52.704;6.398;2023-06-01T05:33:12;12.30;75.40
54898;DHT22;40800;52.704;6.398;2023-06-01T05:35:38;12.30;53.30
54898;DHT22;40800;52.704;6.398;2023-06-01T05:38:03;12.40;72.10
54898;DHT22;40800;52.704;6.398;2023-06-01T05:40:29;12.30;32.20
54898;DHT22;40800;52.704;6.398;2023-06-01T05:42:55;12.40;25.60
54898;DHT22;40800;52.704;6.398;2023-06-01T05:45:21;12.40;6.00
54898;DHT22;40800;52.704;6.398;2023-06-01T05:47:46;12.40;28.90
54898;DHT22;40800;52.704;6.398;2023-06-01T05:50:12;12.40;46.00
54898;DHT22;40800;52.704;6.398;2023-06-01T05:52:38;12.40;57.60
54898;DHT22;40800;52.704;6.398;2023-06-01T05:55:05;12.40;39.10
54898;DHT22;40800;52.704;6.398;2023-06-01T05:57:31;12.50;57.70
54898;DHT22;40800;52.704;6.398;2023-06-01T05:59:56;12.50;85.00
54898;DHT22;40800;52.704;6.398;2023-06-01T06:02:22;12.60;92.20
54898;DHT22;40800;52.704;6.398;2023-06-01T06:04:47;12.60;40.40
54898;DHT22;40800;52.704;6.398;2023-06-01T06:07:13;12.60;53.50
54898;DHT22;40800;52.704;6.398;2023-06-01T06:09:39;12.60;16.90
54898;DHT22;40800;52.704;6.398;2023-06-01T06:12:05;12.60;30.60
54898;DHT22;40800;52.704;6.398;2023-06-01T06:14:31;12.50;54.40
54898;DHT22;40800;52.704;6.398;2023-06-01T06:16:57;12.60;72.90
54898;DHT22;40800;52.704;6.398;2023-06-01T06:19:22;12.60;48.10
54898;DHT22;40800;52.704;6.398;2023-06-01T06:21:48;12.50;1.00
54898;DHT22;40800;52.704;6.398;2023-06-01T06:24:13;12.50;1.00
54898;DHT22;40800;52.704;6.398;2023-06-01T06:26:39;12.40;1.00
54898;DHT22;40800;52.704;6.398;2023-06-01T06:29:05;12.50;26.00
54898;DHT22;40800;52.704;6.398;2023-06-01T06:31:30;12.60;17.80
54898;DHT22;40800;52.704;6.398;2023-06-01T06:33:56;12.70;1.00
54898;DHT22;40800;52.704;6.398;2023-06-01T06:36:21;12.70;1.00
54898;DHT22;40800;52.704;6.398;2023-06-01T06:38:47;12.80;1.00
54898;DHT22;40800;52.704;6.398;2023-06-01T06:41:13;12.90;1.00
54898;DHT22;40800;52.704;6.398;2023-06-01T06:43:39;12.90;1.00
54898;DHT22;40800;52.704;6.398;2023-06-01T06:46:04;12.90;1.00
54898;DHT22;40800;52.704;6.398;2023-06-01T06:48:30;12.90;1.00
54898;DHT22;40800;52.704;6.398;2023-06-01T06:50:56;13.00;1.00
54898;DHT22;40800;52.704;6.398;2023-06-01T06:53:21;13.00;1.00
54898;DHT22;40800;52.704;6.398;2023-06-01T06:55:47;13.10;1.00
54898;DHT22;40800;52.704;6.398;2023-06-01T06:58:13;13.10;1.00
54898;DHT22;40800;52.704;6.398;2023-06-01T07:00:39;13.20;1.00
54898;DHT22;40800;52.704;6.398;2023-06-01T07:03:06;13.20;1.00
54898;DHT22;40800;52.704;6.398;2023-06-01T07:05:32;13.30;1.00
54898;DHT22;40800;52.704;6.398;2023-06-01T07:07:57;13.30;99.90
54898;DHT22;40800;52.704;6.398;2023-06-01T07:10:23;13.40;1.00
54898;DHT22;40800;52.704;6.398;2023-06-01T07:12:50;13.50;99.90
54898;DHT22;40800;52.704;6.398;2023-06-01T07:15:15;13.50;99.90
54898;DHT22;40800;52.704;6.398;2023-06-01T07:17:41;13.50;99.90
54898;DHT22;40800;52.704;6.398;2023-06-01T07:20:08;13.60;99.90
54898;DHT22;40800;52.704;6.398;2023-06-01T07:22:38;13.60;99.90
54898;DHT22;40800;52.704;6.398;2023-06-01T07:25:04;13.70;99.90
54898;DHT22;40800;52.704;6.398;2023-06-01T07:27:30;13.60;99.90
54898;DHT22;40800;52.704;6.398;2023-06-01T07:29:57;13.70;99.90
54898;DHT22;40800;52.704;6.398;2023-06-01T07:32:23;13.70;99.90
54898;DHT22;40800;52.704;6.398;2023-06-01T07:34:49;13.90;99.90
54898;DHT22;40800;52.704;6.398;2023-06-01T07:37:14;14.00;99.90
54898;DHT22;40800;52.704;6.398;2023-06-01T07:39:40;14.10;99.90
54898;DHT22;40800;52.704;6.398;2023-06-01T07:42:06;14.10;99.90
54898;DHT22;40800;52.704;6.398;2023-06-01T07:44:32;14.20;99.90
54898;DHT22;40800;52.704;6.398;2023-06-01T07:46:58;14.30;99.90
54898;DHT22;40800;52.704;6.398;2023-06-01T07:49:24;14.40;99.90
54898;DHT22;40800;52.704;6.398;2023-06-01T07:51:50;14.40;93.20
54898;DHT22;40800;52.704;6.398;2023-06-01T07:54:17;14.50;96.10
54898;DHT22;40800;52.704;6.398;2023-06-01T07:56:42;14.60;92.40
54898;DHT22;40800;52.704;6.398;2023-06-01T07:59:08;14.60;61.40
54898;DHT22;40800;52.704;6.398;2023-06-01T08:01:34;14.70;75.50
54898;DHT22;40800;52.704;6.398;2023-06-01T08:03:59;14.80;33.70
54898;DHT22;40800;52.704;6.398;2023-06-01T08:06:27;14.90;11.70
54898;DHT22;40800;52.704;6.398;2023-06-01T08:08:52;14.90;1.00
54898;DHT22;40800;52.704;6.398;2023-06-01T08:11:18;14.90;1.00
54898;DHT22;40800;52.704;6.398;2023-06-01T08:13:44;15.00;1.00
54898;DHT22;40800;52.704;6.398;2023-06-01T08:16:13;14.80;1.00
54898;DHT22;40800;52.704;6.398;2023-06-01T08:18:39;14.80;1.00
54898;DHT22;40800;52.704;6.398;2023-06-01T08:21:05;14.80;1.00
54898;DHT22;40800;52.704;6.398;2023-06-01T08:23:31;14.70;1.00
54898;DHT22;40800;52.704;6.398;2023-06-01T08:25:56;14.80;1.00
54898;DHT22;40800;52.704;6.398;2023-06-01T08:28:22;15.00;1.00
54898;DHT22;40800;52.704;6.398;2023-06-01T08:30:48;15.10;1.00
54898;DHT22;40800;52.704;6.398;2023-06-01T08:33:13;15.20;1.00
54898;DHT22;40800;52.704;6.398;2023-06-01T08:35:39;15.30;1.00
54898;DHT22;40800;52.704;6.398;2023-06-01T08:38:04;15.40;1.00
54898;DHT22;40800;52.704;6.398;2023-06-01T08:40:30;15.50;1.00
54898;DHT22;40800;52.704;6.398;2023-06-01T08:43:07;15.60;1.00
54898;DHT22;40800;52.704;6.398;2023-06-01T08:45:35;15.60;99.90
54898;DHT22;40800;52.704;6.398;2023-06-01T08:48:02;15.70;99.90
54898;DHT22;40800;52.704;6.398;2023-06-01T08:50:27;15.60;99.90
54898;DHT22;40800;52.704;6.398;2023-06-01T08:52:56;15.50;99.90
54898;DHT22;40800;52.704;6.398;2023-06-01T08:55:22;15.40;99.90
54898;DHT22;40800;52.704;6.398;2023-06-01T08:57:49;15.10;99.90
54898;DHT22;40800;52.704;6.398;2023-06-01T09:00:15;15.20;99.90
54898;DHT22;40800;52.704;6.398;2023-06-01T09:02:42;15.30;99.90
54898;DHT22;40800;52.704;6.398;2023-06-01T09:05:09;15.60;99.90
54898;DHT22;40800;52.704;6.398;2023-06-01T09:07:34;15.70;99.90
54898;DHT22;40800;52.704;6.398;2023-06-01T09:10:00;15.80;99.90
54898;DHT22;40800;52.704;6.398;2023-06-01T09:12:28;16.00;99.90
54898;DHT22;40800;52.704;6.398;2023-06-01T09:15:12;16.10;99.90
54898;DHT22;40800;52.704;6.398;2023-06-01T09:17:39;16.20;99.90
54898;DHT22;40800;52.704;6.398;2023-06-01T09:20:06;16.20;99.90
54898;DHT22;40800;52.704;6.398;2023-06-01T09:22:41;16.20;99.90
54898;DHT22;40800;52.704;6.398;2023-06-01T09:25:08;16.10;99.90
54898;DHT22;40800;52.704;6.398;2023-06-01T09:27:51;16.10;99.90
54898;DHT22;40800;52.704;6.398;2023-06-01T09:30:18;16.20;99.90
54898;DHT22;40800;52.704;6.398;2023-06-01T09:32:45;16.50;99.90
54898;DHT22;40800;52.704;6.398;2023-06-01T09:35:16;16.50;99.90
54898;DHT22;40800;52.704;6.398;2023-06-01T09:37:55;16.60;99.90
54898;DHT22;40800;52.704;6.398;2023-06-01T09:40:21;16.80;99.90
54898;DHT22;40800;52.704;6.398;2023-06-01T09:42:47;16.80;99.90
54898;DHT22;40800;52.704;6.398;2023-06-01T09:45:20;16.80;99.90
54898;DHT22;40800;52.704;6.398;2023-06-01T09:47:50;17.00;99.90
54898;DHT22;40800;52.704;6.398;2023-06-01T09:50:32;17.00;99.90
54898;DHT22;40800;52.704;6.398;2023-06-01T09:52:59;17.00;99.90
54898;DHT22;40800;52.704;6.398;2023-06-01T09:55:25;17.10;99.90
54898;DHT22;40800;52.704;6.398;2023-06-01T09:57:51;17.10;99.90
54898;DHT22;40800;52.704;6.398;2023-06-01T10:00:23;17.00;99.90
54898;DHT22;40800;52.704;6.398;2023-06-01T10:02:52;16.90;99.90
54898;DHT22;40800;52.704;6.398;2023-06-01T10:05:17;16.90;99.90
54898;DHT22;40800;52.704;6.398;2023-06-01T10:07:44;17.00;99.90
54898;DHT22;40800;52.704;6.398;2023-06-01T10:10:13;16.90;99.90
54898;DHT22;40800;52.704;6.398;2023-06-01T10:12:40;16.90;99.90
54898;DHT22;40800;52.704;6.398;2023-06-01T10:15:06;16.90;99.90
54898;DHT22;40800;52.704;6.398;2023-06-01T10:17:34;16.80;99.90
54898;DHT22;40800;52.704;6.398;2023-06-01T10:20:02;16.70;99.90
54898;DHT22;40800;52.704;6.398;2023-06-01T10:22:29;16.70;99.90
54898;DHT22;40800;52.704;6.398;2023-06-01T10:24:55;16.70;99.90
54898;DHT22;40800;52.704;6.398;2023-06-01T10:27:32;16.60;99.90
54898;DHT22;40800;52.704;6.398;2023-06-01T10:29:59;16.30;99.90
54898;DHT22;40800;52.704;6.398;2023-06-01T10:35:06;15.70;1.00
54898;DHT22;40800;52.704;6.398;2023-06-01T10:37:32;15.70;1.00
54898;DHT22;40800;52.704;6.398;2023-06-01T10:40:32;15.60;1.00
54898;DHT22;40800;52.704;6.398;2023-06-01T10:42:58;15.60;1.00
54898;DHT22;40800;52.704;6.398;2023-06-01T10:45:42;15.50;1.00
54898;DHT22;40800;52.704;6.398;2023-06-01T10:48:11;15.60;1.00
54898;DHT22;40800;52.704;6.398;2023-06-01T10:50:39;15.60;1.00
54898;DHT22;40800;52.704;6.398;2023-06-01T10:53:23;15.70;1.00
54898;DHT22;40800;52.704;6.398;2023-06-01T10:56:22;15.80;1.00
54898;DHT22;40800;52.704;6.398;2023-06-01T11:01:37;15.60;1.00
54898;DHT22;40800;52.704;6.398;2023-06-01T11:04:03;15.70;1.00
54898;DHT22;40800;52.704;6.398;2023-06-01T11:06:33;15.60;1.00
54898;DHT22;40800;52.704;6.398;2023-06-01T11:09:02;15.50;1.00
54898;DHT22;40800;52.704;6.398;2023-06-01T11:14:27;15.50;1.00
54898;DHT22;40800;52.704;6.398;2023-06-01T11:16:56;15.50;99.90
54898;DHT22;40800;52.704;6.398;2023-06-01T11:19:42;15.70;1.00
54898;DHT22;40800;52.704;6.398;2023-06-01T11:22:08;15.90;99.90
54898;DHT22;40800;52.704;6.398;2023-06-01T11:24:37;15.70;99.90
54898;DHT22;40800;52.704;6.398;2023-06-01T11:27:07;15.90;99.90
54898;DHT22;40800;52.704;6.398;2023-06-01T11:29:33;16.10;99.90
54898;DHT22;40800;52.704;6.398;2023-06-01T11:32:01;16.20;99.90
54898;DHT22;40800;52.704;6.398;2023-06-01T11:34:39;16.40;99.90
54898;DHT22;40800;52.704;6.398;2023-06-01T11:37:16;16.50;99.90
54898;DHT22;40800;52.704;6.398;2023-06-01T11:39:43;16.60;99.90
54898;DHT22;40800;52.704;6.398;2023-06-01T11:42:16;16.40;99.90
54898;DHT22;40800;52.704;6.398;2023-06-01T11:44:43;16.30;99.90
54898;DHT22;40800;52.704;6.398;2023-06-01T11:47:10;16.20;99.90
54898;DHT22;40800;52.704;6.398;2023-06-01T11:49:47;16.00;99.90
54898;DHT22;40800;52.704;6.398;2023-06-01T11:52:15;15.70;99.90
54898;DHT22;40800;52.704;6.398;2023-06-01T11:54:40;15.50;99.90
54898;DHT22;40800;52.704;6.398;2023-06-01T11:57:07;15.70;99.90
54898;DHT22;40800;52.704;6.398;2023-06-01T11:59:39;15.70;99.90
54898;DHT22;40800;52.704;6.398;2023-06-01T12:02:26;15.90;99.90
54898;DHT22;40800;52.704;6.398;2023-06-01T12:05:03;15.90;99.90
54898;DHT22;40800;52.704;6.398;2023-06-01T12:07:50;15.90;99.90
54898;DHT22;40800;52.704;6.398;2023-06-01T12:10:20;16.10;99.90
54898;DHT22;40800;52.704;6.398;2023-06-01T12:12:46;16.30;99.90
54898;DHT22;40800;52.704;6.398;2023-06-01T12:15:14;16.40;99.90
54898;DHT22;40800;52.704;6.398;2023-06-01T12:20:26;16.60;99.90
54898;DHT22;40800;52.704;6.398;2023-06-01T12:22:52;16.80;99.90
54898;DHT22;40800;52.704;6.398;2023-06-01T12:25:23;17.00;99.90
54898;DHT22;40800;52.704;6.398;2023-06-01T12:28:08;17.10;99.90
54898;DHT22;40800;52.704;6.398;2023-06-01T12:30:35;17.30;99.90
54898;DHT22;40800;52.704;6.398;2023-06-01T12:33:01;17.30;99.90
54898;DHT22;40800;52.704;6.398;2023-06-01T12:35:30;17.50;99.90
54898;DHT22;40800;52.704;6.398;2023-06-01T12:38:03;17.30;99.90
54898;DHT22;40800;52.704;6.398;2023-06-01T12:40:29;17.30;99.90
54898;DHT22;40800;52.704;6.398;2023-06-01T12:42:54;17.40;99.90
54898;DHT22;40800;52.704;6.398;2023-06-01T12:45:20;17.40;99.90
54898;DHT22;40800;52.704;6.398;2023-06-01T12:47:46;17.30;92.10
54898;DHT22;40800;52.704;6.398;2023-06-01T12:50:12;17.40;99.90
54898;DHT22;40800;52.704;6.398;2023-06-01T12:52:39;17.60;99.90
54898;DHT22;40800;52.704;6.398;2023-06-01T12:55:07;17.80;99.90
54898;DHT22;40800;52.704;6.398;2023-06-01T12:57:34;17.90;99.90
54898;DHT22;40800;52.704;6.398;2023-06-01T13:00:00;17.90;54.70
54898;DHT22;40800;52.704;6.398;2023-06-01T13:02:26;17.50;1.00
54898;DHT22;40800;52.704;6.398;2023-06-01T13:04:52;17.00;1.00
54898;DHT22;40800;52.704;6.398;2023-06-01T13:07:19;16.90;10.70
54898;DHT22;40800;52.704;6.398;2023-06-01T13:09:47;16.80;16.90
54898;DHT22;40800;52.704;6.398;2023-06-01T13:12:13;16.90;38.10
54898;DHT22;40800;52.704;6.398;2023-06-01T13:14:38;17.10;50.30
54898;DHT22;40800;52.704;6.398;2023-06-01T13:17:04;17.30;70.50
54898;DHT22;40800;52.704;6.398;2023-06-01T13:19:30;17.60;78.20
54898;DHT22;40800;52.704;6.398;2023-06-01T13:21:55;17.80;50.90
54898;DHT22;40800;52.704;6.398;2023-06-01T13:24:21;18.00;9.50
54898;DHT22;40800;52.704;6.398;2023-06-01T13:26:47;18.00;1.00
54898;DHT22;40800;52.704;6.398;2023-06-01T13:29:13;18.20;1.00
54898;DHT22;40800;52.704;6.398;2023-06-01T13:31:38;18.20;1.00
54898;DHT22;40800;52.704;6.398;2023-06-01T13:34:05;18.20;1.00
54898;DHT22;40800;52.704;6.398;2023-06-01T13:36:31;18.40;1.00
54898;DHT22;40800;52.704;6.398;2023-06-01T13:38:57;18.30;1.00
54898;DHT22;40800;52.704;6.398;2023-06-01T13:41:23;18.20;1.00
54898;DHT22;40800;52.704;6.398;2023-06-01T13:43:48;18.20;1.00
54898;DHT22;40800;52.704;6.398;2023-06-01T13:46:14;18.10;1.00
54898;DHT22;40800;52.704;6.398;2023-06-01T13:48:40;18.00;1.00
54898;DHT22;40800;52.704;6.398;2023-06-01T13:51:06;17.90;1.00
54898;DHT22;40800;52.704;6.398;2023-06-01T13:53:32;17.80;1.00
54898;DHT22;40800;52.704;6.398;2023-06-01T13:55:59;17.50;1.00
54898;DHT22;40800;52.704;6.398;2023-06-01T13:58:24;17.60;1.00
54898;DHT22;40800;52.704;6.398;2023-06-01T14:00:50;17.50;1.00
54898;DHT22;40800;52.704;6.398;2023-06-01T14:03:16;17.70;1.00
54898;DHT22;40800;52.704;6.398;2023-06-01T14:05:42;17.60;1.00
54898;DHT22;40800;52.704;6.398;2023-06-01T14:08:07;17.30;1.00
54898;DHT22;40800;52.704;6.398;2023-06-01T14:10:33;17.50;1.00
54898;DHT22;40800;52.704;6.398;2023-06-01T14:13:00;17.60;1.00
54898;DHT22;40800;52.704;6.398;2023-06-01T14:15:25;17.50;1.00
54898;DHT22;40800;52.704;6.398;2023-06-01T14:17:51;17.50;1.00
54898;DHT22;40800;52.704;6.398;2023-06-01T14:20:17;17.70;1.00
54898;DHT22;40800;52.704;6.398;2023-06-01T14:22:43;17.70;1.00
54898;DHT22;40800;52.704;6.398;2023-06-01T14:25:09;17.80;1.00
54898;DHT22;40800;52.704;6.398;2023-06-01T14:27:35;17.80;1.00
54898;DHT22;40800;52.704;6.398;2023-06-01T14:30:03;17.70;1.00
54898;DHT22;40800;52.704;6.398;2023-06-01T14:32:29;17.60;1.00
54898;DHT22;40800;52.704;6.398;2023-06-01T14:34:55;17.70;1.00
54898;DHT22;40800;52.704;6.398;2023-06-01T14:37:21;17.70;1.00
54898;DHT22;40800;52.704;6.398;2023-06-01T14:39:46;17.80;1.00
54898;DHT22;40800;52.704;6.398;2023-06-01T14:42:12;17.80;1.00
54898;DHT22;40800;52.704;6.398;2023-06-01T14:44:38;17.90;1.00
54898;DHT22;40800;52.704;6.398;2023-06-01T14:47:04;17.90;1.00
54898;DHT22;40800;52.704;6.398;2023-06-01T14:49:29;17.80;1.00
54898;DHT22;40800;52.704;6.398;2023-06-01T14:51:55;17.80;1.00
54898;DHT22;40800;52.704;6.398;2023-06-01T14:54:21;17.80;1.00
54898;DHT22;40800;52.704;6.398;2023-06-01T14:56:46;17.80;1.00
54898;DHT22;40800;52.704;6.398;2023-06-01T14:59:12;17.70;1.00
54898;DHT22;40800;52.704;6.398;2023-06-01T15:01:37;17.70;1.00
54898;DHT22;40800;52.704;6.398;2023-06-01T15:04:06;17.60;99.90
54898;DHT22;40800;52.704;6.398;2023-06-01T15:06:31;17.40;99.90
54898;DHT22;40800;52.704;6.398;2023-06-01T15:08:57;17.30;99.90
54898;DHT22;40800;52.704;6.398;2023-06-01T15:11:23;16.90;1.00
54898;DHT22;40800;52.704;6.398;2023-06-01T15:13:49;16.90;1.00
54898;DHT22;40800;52.704;6.398;2023-06-01T15:16:15;16.90;1.00
54898;DHT22;40800;52.704;6.398;2023-06-01T15:18:41;16.80;1.00
54898;DHT22;40800;52.704;6.398;2023-06-01T15:21:06;16.80;1.00
54898;DHT22;40800;52.704;6.398;2023-06-01T15:23:32;16.70;1.00
54898;DHT22;40800;52.704;6.398;2023-06-01T15:25:58;16.70;1.00
54898;DHT22;40800;52.704;6.398;2023-06-01T15:28:24;16.70;1.00
54898;DHT22;40800;52.704;6.398;2023-06-01T15:30:49;16.70;1.00
54898;DHT22;40800;52.704;6.398;2023-06-01T15:33:15;16.70;1.00
54898;DHT22;40800;52.704;6.398;2023-06-01T15:35:41;16.70;1.00
54898;DHT22;40800;52.704;6.398;2023-06-01T15:38:07;16.60;1.00
54898;DHT22;40800;52.704;6.398;2023-06-01T15:40:32;16.50;1.00
54898;DHT22;40800;52.704;6.398;2023-06-01T15:42:58;16.40;1.00
54898;DHT22;40800;52.704;6.398;2023-06-01T15:45:23;16.40;1.00
54898;DHT22;40800;52.704;6.398;2023-06-01T15:47:49;16.40;1.00
54898;DHT22;40800;52.704;6.398;2023-06-01T15:50:15;16.30;1.00
54898;DHT22;40800;52.704;6.398;2023-06-01T15:52:40;16.30;1.00